createdAt,value
2017-06-14T00:00:38.574Z,6.30
2017-06-14T00:03:07.403Z,6.83
2017-06-14T00:05:35.463Z,6.50
2017-06-14T00:08:03.542Z,6.97
2017-06-14T00:10:31.594Z,6.77
2017-06-14T00:12:59.658Z,8.00
2017-06-14T00:15:27.747Z,7.80
2017-06-14T00:17:55.803Z,6.70
2017-06-14T00:20:23.918Z,7.50
2017-06-14T00:22:51.955Z,7.47
2017-06-14T00:25:20.014Z,8.20
2017-06-14T00:27:48.094Z,7.17
2017-06-14T00:30:16.151Z,8.93
2017-06-14T00:32:44.227Z,10.67
2017-06-14T00:35:12.299Z,8.07
2017-06-14T00:37:40.352Z,6.97
2017-06-14T00:40:08.411Z,6.57
2017-06-14T00:42:37.239Z,7.10
2017-06-14T00:45:05.316Z,6.57
2017-06-14T00:47:33.378Z,7.00
2017-06-14T00:50:01.451Z,6.67
2017-06-14T00:52:29.514Z,7.50
2017-06-14T00:54:57.558Z,6.50
2017-06-14T00:57:26.374Z,6.13
2017-06-14T00:59:54.446Z,5.87
2017-06-14T01:02:22.504Z,6.67
2017-06-14T01:04:50.550Z,6.07
2017-06-14T01:07:19.382Z,6.70
2017-06-14T01:09:47.542Z,6.50
2017-06-14T01:12:16.346Z,7.00
2017-06-14T01:14:44.403Z,6.30
2017-06-14T01:17:12.487Z,7.07
2017-06-14T01:19:40.547Z,6.80
2017-06-14T01:22:08.622Z,6.67
2017-06-14T01:24:36.687Z,7.43
2017-06-14T01:27:04.735Z,8.10
2017-06-14T01:29:33.575Z,6.63
2017-06-14T01:32:01.635Z,6.50
2017-06-14T01:34:29.687Z,7.87
2017-06-14T01:36:57.771Z,7.30
2017-06-14T01:39:25.832Z,7.23
2017-06-14T01:41:53.882Z,6.97
2017-06-14T01:44:21.950Z,9.80
2017-06-14T01:46:50.779Z,10.30
2017-06-14T01:49:18.855Z,9.33
2017-06-14T01:51:46.907Z,7.90
2017-06-14T01:54:14.958Z,8.20
2017-06-14T01:56:43.050Z,7.07
2017-06-14T01:59:11.871Z,6.20
2017-06-14T02:01:39.935Z,7.47
2017-06-14T02:04:08.839Z,6.83
2017-06-14T02:06:36.878Z,6.33
2017-06-14T02:09:06.917Z,7.50
2017-06-14T02:11:35.871Z,7.20
2017-06-14T02:14:03.932Z,7.20
2017-06-14T02:16:31.994Z,8.13
2017-06-14T02:19:00.063Z,7.17
2017-06-14T02:21:28.336Z,6.73
2017-06-14T02:23:56.396Z,7.60
2017-06-14T02:26:24.431Z,7.30
2017-06-14T02:28:53.242Z,8.33
2017-06-14T02:31:21.335Z,8.13
2017-06-14T02:33:49.395Z,8.30
2017-06-14T02:36:17.863Z,9.53
2017-06-14T02:38:45.937Z,7.40
2017-06-14T02:41:13.991Z,9.37
2017-06-14T02:43:42.043Z,9.87
2017-06-14T02:46:10.878Z,11.30
2017-06-14T02:48:38.955Z,7.93
2017-06-14T02:51:07.018Z,7.50
2017-06-14T02:53:35.075Z,8.60
2017-06-14T02:56:03.142Z,9.10
2017-06-14T02:58:31.214Z,8.07
2017-06-14T03:00:59.314Z,8.30
2017-06-14T03:03:27.394Z,9.13
2017-06-14T03:05:55.455Z,7.67
2017-06-14T03:08:23.502Z,8.37
2017-06-14T03:10:51.572Z,9.40
2017-06-14T03:13:19.618Z,8.93
2017-06-14T03:15:47.690Z,9.43
2017-06-14T03:18:15.743Z,8.33
2017-06-14T03:20:50.231Z,9.17
2017-06-14T03:23:18.284Z,8.90
2017-06-14T03:25:46.351Z,8.90
2017-06-14T03:28:14.421Z,10.30
2017-06-14T03:30:42.482Z,10.77
2017-06-14T03:33:10.562Z,10.40
2017-06-14T03:35:38.607Z,9.03
2017-06-14T03:38:07.446Z,10.03
2017-06-14T03:40:35.529Z,8.80
2017-06-14T03:43:03.578Z,8.70
2017-06-14T03:45:31.645Z,8.43
2017-06-14T03:47:59.710Z,8.93
2017-06-14T03:50:27.762Z,8.87
2017-06-14T03:52:55.847Z,13.53
2017-06-14T03:55:23.906Z,9.20
2017-06-14T03:57:51.959Z,8.97
2017-06-14T04:00:20.026Z,12.63
2017-06-14T04:02:48.086Z,9.80
2017-06-14T04:05:16.168Z,9.50
2017-06-14T04:07:44.228Z,9.17
2017-06-14T04:10:12.285Z,10.17
2017-06-14T04:12:41.068Z,9.67
2017-06-14T04:15:09.830Z,8.70
2017-06-14T04:17:38.654Z,8.43
2017-06-14T04:20:06.743Z,8.20
2017-06-14T04:22:34.792Z,7.77
2017-06-14T04:25:02.852Z,10.50
2017-06-14T04:27:31.526Z,10.60
2017-06-14T04:29:59.582Z,9.13
2017-06-14T04:32:28.419Z,9.03
2017-06-14T04:34:56.506Z,14.10
2017-06-14T04:37:24.556Z,11.43
2017-06-14T04:39:52.618Z,9.80
2017-06-14T04:42:20.692Z,9.60
2017-06-14T04:44:48.743Z,9.97
2017-06-14T04:47:17.578Z,8.53
2017-06-14T04:49:45.643Z,10.30
2017-06-14T04:52:13.711Z,14.33
2017-06-14T04:54:46.131Z,10.67
2017-06-14T04:57:14.198Z,10.10
2017-06-14T04:59:42.263Z,11.20
2017-06-14T05:02:11.270Z,11.43
2017-06-14T05:04:38.494Z,11.03
2017-06-14T05:07:06.595Z,10.97
2017-06-14T05:09:34.702Z,11.60
2017-06-14T05:12:02.940Z,11.13
2017-06-14T05:14:31.006Z,10.90
2017-06-14T05:16:59.081Z,10.90
2017-06-14T05:19:27.175Z,10.50
2017-06-14T05:21:55.258Z,11.07
2017-06-14T05:24:23.318Z,11.80
2017-06-14T05:26:51.386Z,11.17
2017-06-14T05:29:19.458Z,17.03
2017-06-14T05:31:47.518Z,15.97
2017-06-14T05:34:15.615Z,12.70
2017-06-14T05:36:44.461Z,13.20
2017-06-14T05:39:12.567Z,13.23
2017-06-14T05:41:40.630Z,12.70
2017-06-14T05:44:08.711Z,11.63
2017-06-14T05:46:36.786Z,12.10
2017-06-14T05:49:05.718Z,10.90
2017-06-14T05:51:34.526Z,11.23
2017-06-14T05:54:02.591Z,9.27
2017-06-14T05:56:30.656Z,10.97
2017-06-14T05:58:58.739Z,12.70
2017-06-14T06:01:26.806Z,10.90
2017-06-14T06:03:54.899Z,12.53
2017-06-14T06:06:22.942Z,8.70
2017-06-14T06:08:51.005Z,12.13
2017-06-14T06:11:19.092Z,9.53
2017-06-14T06:13:47.151Z,10.83
2017-06-14T06:16:15.235Z,9.70
2017-06-14T06:18:43.323Z,9.03
2017-06-14T06:21:11.392Z,8.87
2017-06-14T06:23:39.442Z,11.90
2017-06-14T06:26:07.498Z,14.33
2017-06-14T06:28:35.628Z,11.00
2017-06-14T06:31:03.682Z,9.77
2017-06-14T06:33:31.758Z,11.60
2017-06-14T06:35:59.815Z,7.13
2017-06-14T06:38:27.866Z,11.43
2017-06-14T06:40:55.939Z,11.60
2017-06-14T06:43:24.017Z,10.80
2017-06-14T06:45:52.095Z,7.43
2017-06-14T06:48:20.146Z,12.97
2017-06-14T06:50:48.193Z,7.33
2017-06-14T06:53:16.271Z,10.00
2017-06-14T06:55:45.677Z,5.50
2017-06-14T06:58:13.740Z,8.47
2017-06-14T07:00:42.566Z,6.90
2017-06-14T07:03:10.698Z,14.87
2017-06-14T07:05:38.766Z,7.50
2017-06-14T07:08:07.584Z,8.43
2017-06-14T07:10:35.660Z,8.60
2017-06-14T07:13:03.736Z,10.23
2017-06-14T07:15:31.818Z,9.33
2017-06-14T07:17:59.881Z,8.10
2017-06-14T07:20:27.959Z,9.50
2017-06-14T07:22:56.003Z,8.70
2017-06-14T07:25:24.090Z,9.83
2017-06-14T07:27:52.167Z,7.67
2017-06-14T07:30:20.255Z,8.40
2017-06-14T07:32:48.311Z,8.10
2017-06-14T07:35:16.406Z,8.33
2017-06-14T07:37:44.455Z,6.40
2017-06-14T07:40:12.527Z,7.67
2017-06-14T07:42:41.223Z,6.53
2017-06-14T07:45:09.284Z,5.17
2017-06-14T07:47:37.360Z,7.13
2017-06-14T07:50:05.415Z,9.43
2017-06-14T07:52:33.475Z,5.90
2017-06-14T07:55:01.555Z,31.90
2017-06-14T07:57:29.630Z,5.87
2017-06-14T07:59:58.458Z,4.47
2017-06-14T08:02:26.511Z,4.03
2017-06-14T08:04:55.349Z,5.97
2017-06-14T08:07:23.399Z,3.80
2017-06-14T08:09:51.539Z,4.23
2017-06-14T08:12:20.380Z,3.07
2017-06-14T08:14:48.729Z,3.20
2017-06-14T08:17:16.801Z,3.30
2017-06-14T08:19:44.849Z,2.70
2017-06-14T08:22:13.689Z,2.20
2017-06-14T08:24:41.746Z,3.80
2017-06-14T08:27:09.822Z,3.80
2017-06-14T08:29:37.893Z,3.80
2017-06-14T08:32:05.947Z,5.17
2017-06-14T08:34:34.011Z,4.03
2017-06-14T08:37:02.083Z,3.33
2017-06-14T08:39:30.151Z,5.80
2017-06-14T08:41:58.245Z,7.20
2017-06-14T08:44:26.306Z,3.57
2017-06-14T08:46:54.370Z,4.10
2017-06-14T08:49:22.461Z,3.90
2017-06-14T08:51:50.536Z,2.90
2017-06-14T08:54:18.611Z,5.77
2017-06-14T08:56:47.264Z,3.90
2017-06-14T08:59:16.112Z,3.80
2017-06-14T09:01:44.183Z,4.23
2017-06-14T09:04:12.235Z,3.40
2017-06-14T09:06:40.319Z,5.83
2017-06-14T09:09:08.375Z,24.57
2017-06-14T09:11:36.610Z,7.30
2017-06-14T09:14:04.687Z,3.37
2017-06-14T09:16:34.162Z,3.63
2017-06-14T09:19:02.223Z,3.20
2017-06-14T09:21:30.298Z,3.17
2017-06-14T09:23:58.438Z,3.07
2017-06-14T09:26:26.512Z,4.40
2017-06-14T09:28:54.580Z,4.87
2017-06-14T09:31:22.646Z,4.30
2017-06-14T09:33:50.701Z,2.97
2017-06-14T09:36:19.553Z,3.53
2017-06-14T09:38:47.622Z,5.60
2017-06-14T09:41:15.695Z,3.13
2017-06-14T09:43:43.742Z,3.30
2017-06-14T09:46:12.456Z,5.13
2017-06-14T09:48:40.531Z,3.73
2017-06-14T09:51:08.623Z,4.73
2017-06-14T09:53:37.460Z,3.73
2017-06-14T09:56:05.511Z,2.37
2017-06-14T09:58:33.614Z,2.80
2017-06-14T10:01:02.429Z,3.10
2017-06-14T10:03:30.495Z,3.00
2017-06-14T10:05:58.569Z,2.60
2017-06-14T10:08:26.664Z,2.87
2017-06-14T10:10:54.724Z,2.47
2017-06-14T10:13:22.766Z,3.30
2017-06-14T10:15:51.615Z,3.60
2017-06-14T10:18:19.687Z,3.27
2017-06-14T10:20:47.755Z,2.93
2017-06-14T10:23:15.865Z,2.87
2017-06-14T10:25:44.049Z,3.47
2017-06-14T10:28:12.866Z,2.60
2017-06-14T10:30:40.978Z,3.07
2017-06-14T10:33:09.040Z,3.23
2017-06-14T10:35:37.319Z,3.40
2017-06-14T10:38:05.391Z,3.03
2017-06-14T10:40:33.934Z,2.67
2017-06-14T10:43:01.989Z,2.90
2017-06-14T10:45:30.063Z,2.57
2017-06-14T10:47:58.151Z,4.12
2017-06-14T10:50:26.223Z,2.90
2017-06-14T10:52:54.299Z,5.43
2017-06-14T10:55:22.378Z,3.30
2017-06-14T10:57:50.430Z,3.50
2017-06-14T11:00:19.343Z,3.40
2017-06-14T11:02:48.145Z,4.90
2017-06-14T11:05:16.213Z,8.87
2017-06-14T11:07:44.283Z,6.00
2017-06-14T11:10:12.375Z,9.73
2017-06-14T11:12:40.431Z,6.90
2017-06-14T11:15:08.499Z,15.40
2017-06-14T11:17:36.587Z,4.70
2017-06-14T11:20:04.650Z,6.60
2017-06-14T11:22:32.750Z,4.47
2017-06-14T11:25:00.803Z,3.93
2017-06-14T11:27:29.570Z,3.33
2017-06-14T11:29:57.652Z,12.97
2017-06-14T11:32:25.720Z,3.30
2017-06-14T11:34:53.875Z,2.60
2017-06-14T11:37:21.942Z,2.80
2017-06-14T11:39:50.762Z,2.80
2017-06-14T11:42:18.857Z,3.13
2017-06-14T11:44:46.916Z,4.80
2017-06-14T11:47:14.962Z,3.13
2017-06-14T11:49:43.033Z,5.83
2017-06-14T11:52:11.096Z,2.40
2017-06-14T11:54:39.304Z,2.27
2017-06-14T11:57:07.367Z,2.10
2017-06-14T11:59:35.517Z,3.87
2017-06-14T12:02:03.568Z,3.33
2017-06-14T12:04:31.635Z,2.17
2017-06-14T12:06:59.682Z,2.00
2017-06-14T12:09:27.755Z,2.90
2017-06-14T12:11:55.827Z,2.27
2017-06-14T12:14:23.889Z,2.80
2017-06-14T12:16:51.975Z,2.70
2017-06-14T12:19:20.041Z,4.13
2017-06-14T12:21:48.088Z,2.27
2017-06-14T12:24:16.152Z,3.13
2017-06-14T12:26:44.980Z,1.33
2017-06-14T12:29:13.137Z,1.60
2017-06-14T12:31:41.928Z,2.53
2017-06-14T12:34:09.998Z,2.60
2017-06-14T12:36:38.080Z,3.00
2017-06-14T12:39:06.134Z,2.13
2017-06-14T12:41:34.224Z,1.40
2017-06-14T12:44:02.295Z,4.93
2017-06-14T12:46:30.360Z,5.27
2017-06-14T12:48:58.422Z,1.73
2017-06-14T12:51:26.491Z,1.23
2017-06-14T12:53:55.334Z,1.57
2017-06-14T12:56:23.414Z,1.97
2017-06-14T12:58:51.540Z,1.83
2017-06-14T13:01:20.367Z,2.47
2017-06-14T13:03:48.434Z,10.60
2017-06-14T13:06:16.499Z,5.90
2017-06-14T13:08:44.603Z,3.97
2017-06-14T13:11:12.699Z,2.53
2017-06-14T13:13:40.757Z,3.47
2017-06-14T13:16:08.815Z,1.40
2017-06-14T13:18:36.888Z,5.43
2017-06-14T13:21:04.935Z,1.70
2017-06-14T13:23:33.041Z,1.40
2017-06-14T13:26:01.076Z,6.47
2017-06-14T13:28:29.139Z,3.67
2017-06-14T13:30:57.204Z,2.30
2017-06-14T13:33:25.271Z,1.40
2017-06-14T13:35:53.353Z,4.17
2017-06-14T13:38:21.452Z,2.43
2017-06-14T13:40:49.532Z,2.40
2017-06-14T13:43:17.589Z,2.83
2017-06-14T13:45:45.643Z,5.33
2017-06-14T13:48:13.772Z,2.67
2017-06-14T13:50:42.604Z,2.30
2017-06-14T13:53:10.667Z,3.83
2017-06-14T13:55:38.735Z,2.90
2017-06-14T13:58:06.818Z,2.13
2017-06-14T14:00:35.623Z,1.80
2017-06-14T14:03:03.707Z,4.13
2017-06-14T14:05:32.530Z,1.70
2017-06-14T14:08:00.637Z,1.67
2017-06-14T14:10:28.695Z,1.87
2017-06-14T14:12:56.777Z,1.93
2017-06-14T14:15:24.839Z,1.50
2017-06-14T14:17:52.894Z,2.30
2017-06-14T14:20:20.962Z,2.37
2017-06-14T14:22:49.020Z,1.30
2017-06-14T14:25:17.081Z,3.20
2017-06-14T14:27:45.173Z,2.60
2017-06-14T14:30:13.271Z,2.00
2017-06-14T14:32:41.322Z,4.20
2017-06-14T14:35:09.414Z,2.83
2017-06-14T14:37:37.467Z,2.53
2017-06-14T14:40:05.531Z,1.53
2017-06-14T14:42:33.638Z,2.07
2017-06-14T14:45:01.701Z,2.07
2017-06-14T14:47:29.760Z,1.50
2017-06-14T14:49:57.852Z,1.80
2017-06-14T14:52:25.894Z,1.77
2017-06-14T14:54:53.956Z,1.77
2017-06-14T14:57:22.058Z,1.90
2017-06-14T14:59:50.122Z,1.80
2017-06-14T15:02:18.207Z,2.30
2017-06-14T15:04:47.030Z,2.10
2017-06-14T15:07:15.115Z,2.13
2017-06-14T15:09:43.179Z,2.20
2017-06-14T15:12:11.260Z,1.70
2017-06-14T15:14:39.327Z,2.30
2017-06-14T15:17:07.402Z,2.00
2017-06-14T15:19:35.469Z,3.80
2017-06-14T15:22:03.523Z,2.00
2017-06-14T15:24:31.658Z,3.90
2017-06-14T15:26:59.764Z,3.00
2017-06-14T15:29:27.834Z,2.70
2017-06-14T15:31:56.763Z,2.20
2017-06-14T15:34:24.983Z,2.03
2017-06-14T15:36:53.856Z,2.77
2017-06-14T15:39:21.936Z,1.70
2017-06-14T15:41:49.958Z,2.00
2017-06-14T15:44:18.031Z,4.20
2017-06-14T15:46:46.092Z,3.07
2017-06-14T15:49:14.163Z,2.37
2017-06-14T15:51:42.242Z,1.87
2017-06-14T15:54:10.302Z,2.10
2017-06-14T15:56:39.138Z,5.00
2017-06-14T15:59:08.006Z,3.90
2017-06-14T16:01:36.755Z,2.63
2017-06-14T16:04:05.614Z,1.90
2017-06-14T16:06:33.674Z,2.80
2017-06-14T16:09:01.756Z,2.30
2017-06-14T16:11:29.814Z,5.10
2017-06-14T16:13:57.881Z,2.10
2017-06-14T16:16:25.959Z,2.40
2017-06-14T16:18:54.035Z,2.20
2017-06-14T16:21:22.116Z,2.90
2017-06-14T16:23:50.187Z,2.17
2017-06-14T16:26:18.257Z,2.33
2017-06-14T16:28:46.330Z,3.23
2017-06-14T16:31:14.411Z,2.80
2017-06-14T16:33:43.251Z,3.27
2017-06-14T16:36:11.324Z,2.50
2017-06-14T16:38:39.394Z,2.77
2017-06-14T16:41:08.031Z,2.23
2017-06-14T16:43:36.865Z,3.33
2017-06-14T16:46:04.935Z,3.50
2017-06-14T16:48:32.992Z,2.23
2017-06-14T16:51:01.066Z,2.23
2017-06-14T16:53:29.139Z,2.43
2017-06-14T16:55:57.192Z,2.30
2017-06-14T16:58:25.275Z,3.10
2017-06-14T17:00:53.362Z,4.47
2017-06-14T17:03:21.444Z,2.70
2017-06-14T17:05:49.526Z,3.10
2017-06-14T17:08:17.590Z,3.23
2017-06-14T17:10:45.664Z,2.53
2017-06-14T17:13:13.758Z,2.70
2017-06-14T17:15:41.811Z,6.47
2017-06-14T17:18:09.863Z,2.83
2017-06-14T17:20:37.932Z,3.30
2017-06-14T17:23:06.018Z,4.90
2017-06-14T17:25:34.096Z,3.50
2017-06-14T17:28:02.152Z,2.80
2017-06-14T17:30:30.268Z,4.33
2017-06-14T17:32:58.309Z,3.10
2017-06-14T17:35:26.367Z,3.87
2017-06-14T17:37:54.448Z,4.23
2017-06-14T17:40:22.493Z,2.80
2017-06-14T17:42:50.575Z,3.00
2017-06-14T17:45:18.734Z,2.57
2017-06-14T17:47:46.807Z,4.00
2017-06-14T17:50:14.874Z,4.30
2017-06-14T17:52:42.983Z,2.73
2017-06-14T17:55:11.056Z,5.47
2017-06-14T17:57:39.144Z,2.80
2017-06-14T18:00:07.208Z,5.53
2017-06-14T18:02:35.299Z,4.83
2017-06-14T18:05:03.362Z,3.37
2017-06-14T18:07:31.406Z,3.70
2017-06-14T18:09:59.495Z,3.10
2017-06-14T18:12:27.575Z,3.33
2017-06-14T18:14:55.638Z,3.43
2017-06-14T18:17:23.724Z,3.20
2017-06-14T18:19:51.791Z,3.67
2017-06-14T18:22:19.854Z,2.70
2017-06-14T18:24:47.936Z,2.93
2017-06-14T18:27:16.001Z,3.17
2017-06-14T18:29:44.071Z,3.70
2017-06-14T18:32:12.162Z,3.20
2017-06-14T18:34:40.223Z,3.07
2017-06-14T18:37:08.286Z,6.30
2017-06-14T18:39:36.362Z,2.87
2017-06-14T18:42:04.421Z,3.20
2017-06-14T18:44:32.471Z,3.50
2017-06-14T18:47:00.548Z,3.80
2017-06-14T18:49:28.606Z,4.00
2017-06-14T18:51:56.686Z,2.73
2017-06-14T18:54:24.755Z,3.60
2017-06-14T18:56:52.836Z,4.87
2017-06-14T18:59:21.134Z,3.63
2017-06-14T19:01:49.225Z,2.93
2017-06-14T19:04:17.266Z,3.30
2017-06-14T19:06:45.371Z,9.00
2017-06-14T19:09:14.216Z,3.70
2017-06-14T19:11:42.289Z,5.73
2017-06-14T19:14:10.371Z,4.90
2017-06-14T19:16:38.533Z,3.00
2017-06-14T19:19:06.620Z,2.53
2017-06-14T19:21:34.692Z,2.73
2017-06-14T19:24:08.640Z,3.30
2017-06-14T19:26:37.489Z,13.63
2017-06-14T19:29:05.535Z,5.37
2017-06-14T19:31:33.631Z,6.47
2017-06-14T19:34:13.465Z,2.73
2017-06-14T19:36:47.388Z,3.30
2017-06-14T19:39:15.451Z,13.00
2017-06-14T19:41:44.708Z,10.07
2017-06-14T19:44:12.831Z,3.90
2017-06-14T19:46:40.911Z,3.83
2017-06-14T19:49:09.772Z,4.53
2017-06-14T19:51:37.860Z,3.47
2017-06-14T19:54:05.951Z,3.47
2017-06-14T19:56:34.803Z,2.90
2017-06-14T19:59:02.936Z,2.90
2017-06-14T20:01:31.009Z,3.37
2017-06-14T20:03:59.855Z,3.17
2017-06-14T20:06:28.712Z,3.90
2017-06-14T20:08:56.785Z,3.40
2017-06-14T20:11:24.872Z,2.90
2017-06-14T20:13:52.961Z,3.33
2017-06-14T20:16:21.787Z,3.67
2017-06-14T20:18:49.903Z,3.30
2017-06-14T20:21:17.978Z,4.00
2017-06-14T20:23:46.068Z,4.03
2017-06-14T20:26:14.923Z,2.93
2017-06-14T20:28:43.010Z,3.03
2017-06-14T20:31:11.156Z,4.73
2017-06-14T20:33:39.211Z,2.87
2017-06-14T20:36:07.298Z,3.27
2017-06-14T20:38:35.367Z,3.20
2017-06-14T20:41:03.439Z,4.20
2017-06-14T20:43:31.519Z,3.47
2017-06-14T20:45:59.577Z,4.73
2017-06-14T20:48:27.649Z,3.10
2017-06-14T20:50:55.771Z,6.47
2017-06-14T20:53:24.639Z,20.73
2017-06-14T20:55:52.721Z,4.70
2017-06-14T20:58:20.784Z,8.37
2017-06-14T21:00:48.933Z,3.00
2017-06-14T21:03:17.763Z,3.83
2017-06-14T21:05:45.830Z,4.17
2017-06-14T21:08:13.897Z,7.10
2017-06-14T21:10:41.981Z,3.20
2017-06-14T21:13:10.052Z,3.23
2017-06-14T21:15:38.115Z,2.63
2017-06-14T21:18:06.211Z,7.27
2017-06-14T21:20:35.077Z,3.17
2017-06-14T21:23:03.120Z,3.20
2017-06-14T21:25:31.228Z,3.20
2017-06-14T21:27:59.292Z,4.67
2017-06-14T21:30:27.367Z,3.43
2017-06-14T21:32:55.473Z,4.20
2017-06-14T21:35:24.307Z,4.20
2017-06-14T21:37:52.391Z,4.40
2017-06-14T21:40:20.452Z,4.37
2017-06-14T21:42:48.553Z,4.03
2017-06-14T21:45:17.452Z,3.80
2017-06-14T21:47:45.491Z,3.90
2017-06-14T21:50:13.565Z,6.23
2017-06-14T21:52:41.633Z,5.13
2017-06-14T21:55:09.679Z,8.73
2017-06-14T21:57:37.777Z,5.70
2017-06-14T22:00:05.822Z,4.90
2017-06-14T22:02:33.880Z,5.70
2017-06-14T22:05:01.955Z,5.43
2017-06-14T22:07:30.803Z,4.03
2017-06-14T22:09:59.620Z,5.27
2017-06-14T22:12:27.676Z,5.00
2017-06-14T22:14:55.752Z,4.90
2017-06-14T22:17:23.818Z,4.80
2017-06-14T22:19:51.892Z,4.43
2017-06-14T22:22:19.948Z,5.60
2017-06-14T22:24:48.027Z,4.03
2017-06-14T22:27:16.084Z,3.80
2017-06-14T22:29:44.148Z,5.20
2017-06-14T22:32:12.226Z,4.93
2017-06-14T22:34:40.288Z,5.37
2017-06-14T22:37:08.368Z,4.97
2017-06-14T22:39:36.418Z,4.30
2017-06-14T22:42:04.491Z,8.30
2017-06-14T22:44:32.563Z,4.90
2017-06-14T22:47:00.631Z,5.17
2017-06-14T22:49:28.696Z,5.13
2017-06-14T22:51:56.775Z,4.87
2017-06-14T22:54:24.838Z,5.20
2017-06-14T22:56:52.908Z,6.07
2017-06-14T22:59:20.979Z,5.00
2017-06-14T23:01:49.026Z,5.50
2017-06-14T23:04:17.091Z,5.00
2017-06-14T23:06:47.082Z,7.77
2017-06-14T23:09:15.202Z,6.07
2017-06-14T23:11:43.254Z,6.60
2017-06-14T23:14:12.071Z,6.60
2017-06-14T23:16:40.143Z,5.97
2017-06-14T23:19:08.220Z,5.17
2017-06-14T23:21:36.325Z,5.73
2017-06-14T23:24:04.410Z,5.77
2017-06-14T23:26:33.251Z,6.20
2017-06-14T23:29:01.310Z,5.87
2017-06-14T23:31:29.375Z,5.07
2017-06-14T23:33:57.427Z,5.63
2017-06-14T23:36:26.255Z,6.57
2017-06-14T23:38:54.322Z,5.60
2017-06-14T23:41:22.382Z,5.63
2017-06-14T23:43:50.455Z,6.50
2017-06-14T23:46:18.555Z,5.73
2017-06-14T23:48:46.614Z,6.23
2017-06-14T23:51:14.687Z,8.20
2017-06-14T23:53:42.757Z,6.23
2017-06-14T23:56:10.815Z,6.50
2017-06-14T23:58:38.890Z,6.30
